Time;durP1;ratioP1;P1;durP2;ratioP2;P2;SDS_P1;SDS_P2;PMS_P1;PMS_P2;Temp;Humidity;BMP_temperature;BMP_pressure;BME280_temperature;BME280_humidity;BME280_pressure;Samples;Min_cycle;Max_cycle;Signal;HPM_P1;HPM_P2
2023/06/23 00:02:06;;;;;;;16.10;14.50;;;18.20;99.90;;;;;;5021775;28;20448;-76
2023/06/23 00:04:32;;;;;;;16.63;14.98;;;18.20;99.90;;;;;;5047598;28;20814;-77
2023/06/23 00:07:00;;;;;;;15.98;14.48;;;18.20;99.90;;;;;;5044452;28;20506;-76
2023/06/23 00:09:26;;;;;;;16.13;14.50;;;18.20;99.90;;;;;;5010331;28;20413;-78
2023/06/23 00:11:51;;;;;;;16.03;14.43;;;18.20;99.90;;;;;;4950669;28;20802;-77
2023/06/23 00:14:17;;;;;;;17.17;15.53;;;18.20;99.90;;;;;;4991831;28;20772;-76
2023/06/23 00:16:43;;;;;;;17.80;15.07;;;18.20;99.90;;;;;;5000327;28;20442;-76
2023/06/23 00:19:09;;;;;;;17.53;15.63;;;18.20;99.90;;;;;;4943083;28;20435;-78
2023/06/23 00:21:35;;;;;;;17.20;15.37;;;18.30;99.90;;;;;;4998512;28;20530;-77
2023/06/23 00:24:01;;;;;;;18.33;16.33;;;18.20;99.90;;;;;;4986120;28;20900;-77
2023/06/23 00:26:27;;;;;;;18.10;15.95;;;18.20;99.90;;;;;;4963041;28;20450;-76
2023/06/23 00:28:53;;;;;;;18.92;15.73;;;18.30;99.90;;;;;;5026556;28;20425;-77
2023/06/23 00:31:18;;;;;;;18.38;16.45;;;18.20;99.90;;;;;;4959600;28;20442;-76
2023/06/23 00:33:44;;;;;;;16.55;15.05;;;18.30;99.90;;;;;;4998844;28;20417;-76
2023/06/23 00:36:10;;;;;;;17.88;16.17;;;18.30;99.90;;;;;;5026142;28;20900;-78
2023/06/23 00:38:36;;;;;;;20.17;17.27;;;18.20;99.90;;;;;;5002380;28;20424;-77
2023/06/23 00:41:02;;;;;;;19.02;16.42;;;18.10;99.90;;;;;;4979327;28;20438;-77
2023/06/23 00:43:31;;;;;;;18.65;16.85;;;18.20;99.90;;;;;;4987451;28;20429;-77
2023/06/23 00:46:11;;;;;;;18.33;16.52;;;18.10;99.90;;;;;;4958688;28;20437;-77
2023/06/23 00:48:40;;;;;;;19.65;17.90;;;18.20;99.90;;;;;;4950173;29;20436;-79
2023/06/23 00:51:06;;;;;;;19.20;17.30;;;18.10;99.90;;;;;;4975046;28;20436;-77
2023/06/23 00:53:31;;;;;;;22.88;19.00;;;18.10;99.90;;;;;;4963254;28;20918;-78
2023/06/23 00:55:58;;;;;;;18.50;16.60;;;18.10;99.90;;;;;;4958955;28;20426;-77
2023/06/23 00:58:27;;;;;;;19.42;17.48;;;18.20;99.90;;;;;;4953189;28;20842;-78
2023/06/23 01:00:56;;;;;;;19.03;17.07;;;18.10;99.90;;;;;;5014842;28;20429;-77
2023/06/23 01:03:21;;;;;;;19.40;17.38;;;18.10;99.90;;;;;;4977512;28;20436;-77
2023/06/23 01:05:50;;;;;;;19.67;17.80;;;18.00;99.90;;;;;;5064393;22;20937;-77
2023/06/23 01:08:36;;;;;;;18.42;16.73;;;18.00;99.90;;;;;;4983706;28;20761;-78
2023/06/23 01:11:24;;;;;;;17.73;16.02;;;18.00;99.90;;;;;;4967174;28;20431;-77
2023/06/23 01:14:10;;;;;;;19.60;17.60;;;18.00;99.90;;;;;;4953085;28;20437;-76
2023/06/23 01:16:54;;;;;;;19.50;16.60;;;17.90;99.90;;;;;;5022077;28;20893;-77
2023/06/23 01:19:49;;;;;;;19.35;17.25;;;18.00;99.90;;;;;;4932889;28;20484;-77
2023/06/23 01:22:41;;;;;;;18.40;16.05;;;17.80;99.90;;;;;;4966214;28;20450;-78
2023/06/23 01:25:45;;;;;;;18.88;15.82;;;17.80;99.90;;;;;;4925560;28;20431;-78
2023/06/23 01:28:29;;;;;;;18.30;16.52;;;17.80;99.90;;;;;;4929818;28;20441;-78
2023/06/23 01:31:00;;;;;;;16.67;15.02;;;17.80;99.90;;;;;;4975852;28;20912;-77
2023/06/23 01:33:39;;;;;;;19.40;15.50;;;17.80;99.90;;;;;;4994328;28;20741;-76
2023/06/23 01:36:09;;;;;;;16.50;14.80;;;17.70;99.90;;;;;;4987083;28;20423;-77
2023/06/23 01:38:43;;;;;;;15.35;13.75;;;17.70;99.90;;;;;;5026708;28;20909;-78
2023/06/23 01:41:15;;;;;;;14.32;12.63;;;17.70;99.90;;;;;;5001388;28;20453;-77
2023/06/23 01:43:47;;;;;;;15.15;13.38;;;17.60;99.90;;;;;;5027572;28;20442;-78
2023/06/23 01:46:16;;;;;;;16.15;13.32;;;17.70;99.90;;;;;;5009193;28;20434;-76
2023/06/23 01:48:46;;;;;;;16.35;12.73;;;17.60;99.90;;;;;;5025108;28;20419;-76
2023/06/23 01:51:12;;;;;;;14.38;12.50;;;17.60;99.90;;;;;;5021170;28;20779;-77
2023/06/23 01:53:39;;;;;;;16.13;13.85;;;17.60;99.90;;;;;;4948506;28;20431;-77
2023/06/23 01:56:07;;;;;;;14.75;13.25;;;17.60;99.90;;;;;;4979699;28;20427;-77
2023/06/23 01:58:37;;;;;;;15.05;13.38;;;17.60;99.90;;;;;;5021545;28;20418;-77
2023/06/23 02:01:03;;;;;;;14.00;12.60;;;17.60;99.90;;;;;;4938211;28;20474;-77
2023/06/23 02:03:30;;;;;;;15.70;12.98;;;17.50;99.90;;;;;;4991595;28;20431;-78
2023/06/23 02:05:57;;;;;;;14.05;12.68;;;17.50;99.90;;;;;;4980858;28;20424;-78
2023/06/23 02:08:26;;;;;;;17.35;14.10;;;17.50;99.90;;;;;;4954180;28;20443;-78
2023/06/23 02:10:54;;;;;;;14.88;13.40;;;17.50;99.90;;;;;;4929678;29;20427;-78
2023/06/23 02:13:22;;;;;;;16.98;15.15;;;17.40;99.90;;;;;;4965270;28;20467;-77
2023/06/23 02:15:50;;;;;;;15.10;13.68;;;17.40;99.90;;;;;;4929905;28;20485;-77
2023/06/23 02:18:18;;;;;;;15.00;13.47;;;17.40;99.90;;;;;;4990900;28;20921;-76
2023/06/23 02:20:45;;;;;;;20.70;14.23;;;17.40;99.90;;;;;;5007670;28;20427;-77
2023/06/23 02:23:13;;;;;;;15.77;14.20;;;17.40;99.90;;;;;;4911508;28;20437;-77
2023/06/23 02:25:39;;;;;;;17.45;15.73;;;17.40;99.90;;;;;;4924524;28;20441;-77
2023/06/23 02:28:08;;;;;;;16.98;14.05;;;17.30;99.90;;;;;;4987375;28;20519;-78
2023/06/23 02:30:34;;;;;;;15.00;13.50;;;17.30;99.90;;;;;;4935809;28;20432;-78
2023/06/23 02:33:00;;;;;;;15.77;14.18;;;17.20;99.90;;;;;;4984142;28;20785;-77
2023/06/23 02:35:26;;;;;;;15.75;14.18;;;17.30;99.90;;;;;;5008429;28;20411;-77
2023/06/23 02:38:00;;;;;;;16.00;14.13;;;17.20;99.90;;;;;;5013953;28;20439;-77
2023/06/23 02:40:27;;;;;;;16.17;14.47;;;17.20;99.90;;;;;;5027033;28;20413;-78
2023/06/23 02:43:29;;;;;;;18.08;13.68;;;17.20;99.90;;;;;;4929072;28;20450;-77
2023/06/23 02:46:00;;;;;;;14.47;12.40;;;17.20;99.90;;;;;;4917812;28;20423;-78
2023/06/23 02:48:53;;;;;;;15.20;13.70;;;17.20;99.90;;;;;;4930386;29;20968;-77
2023/06/23 02:51:23;;;;;;;16.65;14.32;;;17.20;99.90;;;;;;4977342;28;20448;-78
2023/06/23 02:53:55;;;;;;;15.23;13.90;;;17.20;99.90;;;;;;4929217;28;20408;-79
2023/06/23 02:56:26;;;;;;;16.10;13.30;;;17.10;99.90;;;;;;4943759;28;20654;-77
2023/06/23 02:58:57;;;;;;;15.90;14.27;;;17.10;99.90;;;;;;4944050;28;20820;-76
2023/06/23 03:01:26;;;;;;;16.00;14.38;;;17.10;99.90;;;;;;4930243;29;20917;-76
2023/06/23 03:03:53;;;;;;;15.25;13.73;;;17.00;99.90;;;;;;4988400;28;20430;-76
2023/06/23 03:06:23;;;;;;;15.68;14.18;;;17.00;99.90;;;;;;4994782;28;20995;-76
2023/06/23 03:08:50;;;;;;;16.08;14.38;;;17.00;99.90;;;;;;4913582;28;20466;-77
2023/06/23 03:11:20;;;;;;;16.20;14.60;;;17.00;99.90;;;;;;4913576;28;20521;-77
2023/06/23 03:13:47;;;;;;;16.00;14.50;;;17.00;99.90;;;;;;4915441;29;20469;-77
2023/06/23 03:16:48;;;;;;;16.67;15.00;;;17.00;99.90;;;;;;4946748;28;20472;-77
2023/06/23 03:19:44;;;;;;;16.92;15.10;;;17.00;99.90;;;;;;4914703;29;20445;-78
2023/06/23 03:22:14;;;;;;;17.55;15.10;;;16.90;99.90;;;;;;4907245;29;20469;-78
2023/06/23 03:24:43;;;;;;;16.38;14.77;;;16.80;99.90;;;;;;4915654;29;20468;-78
2023/06/23 03:27:10;;;;;;;17.75;15.93;;;16.90;99.90;;;;;;4949626;28;20443;-77
2023/06/23 03:29:44;;;;;;;18.53;16.03;;;16.90;99.90;;;;;;4959725;28;20475;-77
2023/06/23 03:32:14;;;;;;;16.85;15.25;;;16.90;99.90;;;;;;4918141;28;20444;-77
2023/06/23 03:34:47;;;;;;;19.00;17.05;;;16.90;99.90;;;;;;4933561;28;20786;-76
2023/06/23 03:37:17;;;;;;;20.97;19.07;;;16.90;99.90;;;;;;4953224;28;20425;-77
2023/06/23 03:39:47;;;;;;;22.70;20.50;;;17.00;99.90;;;;;;4961583;28;20420;-78
2023/06/23 03:42:13;;;;;;;24.15;21.75;;;16.90;99.90;;;;;;4944838;28;20433;-76
2023/06/23 03:44:46;;;;;;;23.38;21.02;;;16.90;99.90;;;;;;5004907;28;20482;-77
2023/06/23 03:47:16;;;;;;;25.30;22.63;;;17.00;99.90;;;;;;4975981;28;20435;-78
2023/06/23 03:49:46;;;;;;;26.67;24.00;;;17.00;99.90;;;;;;4955643;28;20504;-76
2023/06/23 03:52:15;;;;;;;26.50;23.70;;;16.90;99.90;;;;;;4913970;28;20445;-76
2023/06/23 03:54:43;;;;;;;28.77;25.92;;;16.90;99.90;;;;;;4914606;29;20474;-77
2023/06/23 03:57:13;;;;;;;29.40;26.58;;;16.90;99.90;;;;;;4917005;28;20437;-78
2023/06/23 03:59:41;;;;;;;30.00;26.83;;;16.90;99.90;;;;;;4916170;28;20434;-78
2023/06/23 04:02:09;;;;;;;30.85;27.52;;;16.90;99.90;;;;;;4919700;29;20513;-78
2023/06/23 04:04:37;;;;;;;29.85;27.00;;;16.90;99.90;;;;;;4930702;29;20908;-78
2023/06/23 04:07:04;;;;;;;27.50;24.80;;;16.90;99.90;;;;;;4914587;29;20451;-77
2023/06/23 04:09:33;;;;;;;29.52;26.60;;;16.80;99.90;;;;;;4913353;29;21035;-78
2023/06/23 04:12:00;;;;;;;33.20;26.17;;;16.90;99.90;;;;;;4940397;28;20445;-77
2023/06/23 04:14:27;;;;;;;28.38;25.38;;;16.90;99.90;;;;;;5000640;28;20495;-78
2023/06/23 04:16:55;;;;;;;28.88;26.08;;;16.90;99.90;;;;;;4933024;28;20437;-78
2023/06/23 04:19:27;;;;;;;27.92;25.27;;;17.00;99.90;;;;;;4926053;28;20436;-77
2023/06/23 04:21:54;;;;;;;29.02;26.15;;;16.90;99.90;;;;;;4955670;28;20448;-77
2023/06/23 04:24:21;;;;;;;29.27;26.27;;;17.00;99.90;;;;;;4919052;28;20457;-77
2023/06/23 04:26:52;;;;;;;28.05;25.35;;;16.90;99.90;;;;;;4907229;29;20450;-77
2023/06/23 04:29:19;;;;;;;28.50;25.70;;;17.00;99.90;;;;;;4894648;29;20429;-76
2023/06/23 04:31:49;;;;;;;26.58;23.95;;;17.00;99.90;;;;;;4900805;29;20809;-78
2023/06/23 04:34:15;;;;;;;26.95;24.25;;;17.10;99.90;;;;;;4896624;29;20442;-78
2023/06/23 04:36:48;;;;;;;25.50;22.45;;;17.00;99.90;;;;;;4913178;28;20465;-76
2023/06/23 04:39:43;;;;;;;25.00;22.40;;;17.00;99.90;;;;;;4912049;29;21135;-78
2023/06/23 04:42:13;;;;;;;21.67;19.58;;;17.00;99.90;;;;;;4929309;28;20433;-76
2023/06/23 04:44:44;;;;;;;23.10;20.10;;;17.10;99.90;;;;;;5001541;28;20566;-78
2023/06/23 04:47:12;;;;;;;21.05;18.95;;;17.20;99.90;;;;;;4959819;28;20434;-78
2023/06/23 04:49:39;;;;;;;21.67;19.45;;;17.30;99.90;;;;;;4950882;28;20437;-78
2023/06/23 04:52:07;;;;;;;19.42;17.50;;;17.40;99.90;;;;;;4912216;29;20579;-78
2023/06/23 04:54:40;;;;;;;19.15;17.02;;;17.30;99.90;;;;;;4941648;28;20467;-78
2023/06/23 04:57:14;;;;;;;18.45;16.52;;;17.30;99.90;;;;;;5009884;28;20435;-76
2023/06/23 04:59:45;;;;;;;17.63;15.82;;;17.40;99.90;;;;;;4981013;28;20524;-79
2023/06/23 05:02:12;;;;;;;18.15;16.25;;;17.40;99.90;;;;;;4926320;28;20433;-78
2023/06/23 05:04:41;;;;;;;17.75;15.82;;;17.40;99.90;;;;;;4920061;28;20525;-78
2023/06/23 05:07:08;;;;;;;17.15;15.45;;;17.50;99.90;;;;;;4993595;28;20435;-79
2023/06/23 05:09:36;;;;;;;19.40;16.70;;;17.50;99.90;;;;;;4995058;28;20431;-78
2023/06/23 05:12:03;;;;;;;16.08;14.38;;;17.50;99.90;;;;;;4988235;28;20523;-77
2023/06/23 05:14:30;;;;;;;17.02;15.13;;;17.50;99.90;;;;;;4995803;28;20427;-77
2023/06/23 05:17:00;;;;;;;17.05;15.02;;;17.60;99.90;;;;;;5027292;28;20431;-77
2023/06/23 05:19:30;;;;;;;16.00;14.40;;;17.50;99.90;;;;;;4979484;28;20505;-76
2023/06/23 05:21:57;;;;;;;15.77;14.27;;;17.50;99.90;;;;;;5028237;28;20427;-77
2023/06/23 05:24:27;;;;;;;18.13;14.70;;;17.60;99.90;;;;;;4961434;28;20452;-78
2023/06/23 05:26:56;;;;;;;17.63;14.85;;;17.60;99.90;;;;;;4982087;28;20967;-77
2023/06/23 05:29:23;;;;;;;16.95;15.15;;;17.70;99.90;;;;;;4992575;28;21200;-77
2023/06/23 05:31:50;;;;;;;16.85;13.95;;;17.70;99.90;;;;;;4930574;29;20435;-77
2023/06/23 05:34:18;;;;;;;15.27;13.68;;;17.80;99.90;;;;;;4931072;29;20439;-78
2023/06/23 05:36:45;;;;;;;15.82;14.02;;;17.90;99.90;;;;;;4914914;28;20454;-78
2023/06/23 05:39:16;;;;;;;14.80;13.18;;;18.00;99.90;;;;;;4930517;28;20802;-78
2023/06/23 05:41:42;;;;;;;17.10;14.30;;;17.90;99.90;;;;;;4978110;28;20474;-77
2023/06/23 05:44:08;;;;;;;14.77;13.38;;;18.10;99.90;;;;;;4991654;28;20458;-77
2023/06/23 05:46:38;;;;;;;15.23;13.63;;;18.20;99.90;;;;;;5006362;28;20443;-77
2023/06/23 05:49:13;;;;;;;18.70;14.57;;;18.20;99.90;;;;;;4929853;29;20448;-77
2023/06/23 05:51:40;;;;;;;14.63;13.13;;;18.30;99.90;;;;;;5005047;28;20435;-76
2023/06/23 05:54:10;;;;;;;14.68;13.23;;;18.30;99.90;;;;;;4970241;28;20476;-77
2023/06/23 05:56:39;;;;;;;13.87;12.47;;;18.40;99.90;;;;;;5020641;28;20456;-75
2023/06/23 05:59:17;;;;;;;14.05;12.48;;;18.40;99.90;;;;;;4978666;28;20917;-77
2023/06/23 06:01:45;;;;;;;14.40;12.57;;;18.40;99.90;;;;;;5015985;28;20431;-75
2023/06/23 06:04:17;;;;;;;13.10;11.63;;;18.40;99.90;;;;;;5027500;28;20435;-75
2023/06/23 06:06:45;;;;;;;12.50;11.27;;;18.50;99.90;;;;;;4998475;28;20439;-75
2023/06/23 06:09:12;;;;;;;15.98;12.10;;;18.60;99.90;;;;;;4928796;28;20428;-75
2023/06/23 06:11:39;;;;;;;10.55;9.45;;;18.50;99.90;;;;;;4932225;28;20424;-77
2023/06/23 06:14:10;;;;;;;12.65;9.25;;;18.70;99.90;;;;;;4933163;28;20819;-76
2023/06/23 06:16:40;;;;;;;11.20;9.93;;;18.80;99.90;;;;;;4959577;28;20450;-78
2023/06/23 06:19:07;;;;;;;11.43;9.13;;;18.90;99.90;;;;;;4932903;29;20428;-77
2023/06/23 06:21:35;;;;;;;10.68;9.10;;;18.90;99.90;;;;;;4932133;29;20941;-77
2023/06/23 06:24:03;;;;;;;8.30;7.35;;;19.00;99.90;;;;;;4932672;28;20940;-76
2023/06/23 06:26:29;;;;;;;9.98;8.32;;;19.00;99.90;;;;;;4920580;29;20423;-78
2023/06/23 06:28:58;;;;;;;12.68;8.77;;;19.10;99.90;;;;;;4933644;28;20440;-77
2023/06/23 06:31:25;;;;;;;9.05;7.20;;;19.20;99.90;;;;;;4930523;28;20801;-77
2023/06/23 06:33:54;;;;;;;8.07;6.90;;;19.20;99.90;;;;;;4978297;28;20433;-79
2023/06/23 06:36:22;;;;;;;9.52;7.38;;;19.30;99.90;;;;;;4937029;28;20440;-78
2023/06/23 06:38:50;;;;;;;10.83;7.43;;;19.40;99.90;;;;;;4935392;28;20440;-78
2023/06/23 06:41:17;;;;;;;8.38;7.15;;;19.50;99.90;;;;;;4933478;29;20458;-75
2023/06/23 06:43:44;;;;;;;8.15;6.93;;;19.60;99.90;;;;;;4934641;29;20949;-84
2023/06/23 06:46:11;;;;;;;7.80;7.00;;;19.60;99.90;;;;;;4936350;29;20470;-78
2023/06/23 06:48:38;;;;;;;9.38;7.55;;;19.70;99.90;;;;;;4934376;29;20435;-78
2023/06/23 06:51:05;;;;;;;7.43;5.90;;;19.80;99.90;;;;;;4934603;29;20436;-79
2023/06/23 06:53:31;;;;;;;7.80;6.18;;;19.80;99.90;;;;;;4933631;28;20933;-77
2023/06/23 06:55:58;;;;;;;8.10;6.03;;;19.90;99.90;;;;;;4935109;28;20567;-78
2023/06/23 06:58:23;;;;;;;8.85;6.70;;;20.20;99.90;;;;;;4932994;29;20423;-79
2023/06/23 07:00:49;;;;;;;7.43;5.90;;;20.20;99.90;;;;;;4933366;28;20454;-76
2023/06/23 07:03:16;;;;;;;6.47;5.60;;;20.30;99.90;;;;;;4930720;28;20530;-79
2023/06/23 07:05:41;;;;;;;7.35;6.10;;;20.90;99.90;;;;;;4933429;28;20439;-78
2023/06/23 07:08:08;;;;;;;7.15;5.90;;;21.60;99.90;;;;;;4999375;28;20447;-77
2023/06/23 07:10:35;;;;;;;6.85;5.65;;;22.60;99.90;;;;;;4975721;28;20419;-78
2023/06/23 07:13:01;;;;;;;9.35;5.80;;;23.40;99.90;;;;;;5006662;28;20435;-78
2023/06/23 07:15:27;;;;;;;6.32;5.72;;;23.90;99.90;;;;;;4935554;28;21019;-77
2023/06/23 07:17:53;;;;;;;8.55;6.25;;;24.50;99.90;;;;;;4937911;29;20471;-78
2023/06/23 07:20:19;;;;;;;7.22;6.38;;;24.70;99.90;;;;;;4937491;29;20428;-78
2023/06/23 07:22:45;;;;;;;10.60;8.48;;;24.70;99.90;;;;;;4934117;29;20786;-78
2023/06/23 07:25:10;;;;;;;9.70;8.45;;;24.80;99.90;;;;;;4942449;28;20424;-78
2023/06/23 07:27:36;;;;;;;9.87;7.87;;;24.90;99.90;;;;;;4934267;29;20416;-78
2023/06/23 07:30:03;;;;;;;11.00;8.48;;;25.40;99.90;;;;;;4942045;28;20427;-79
2023/06/23 07:32:29;;;;;;;6.88;5.90;;;25.70;99.90;;;;;;4965052;28;20522;-78
2023/06/23 07:34:55;;;;;;;5.88;5.25;;;25.40;99.90;;;;;;4933492;29;20554;-80
2023/06/23 07:37:20;;;;;;;7.87;5.27;;;25.50;99.90;;;;;;4930518;29;20538;-75
2023/06/23 07:39:46;;;;;;;5.68;4.72;;;26.10;99.90;;;;;;4931208;29;20497;-76
2023/06/23 07:42:12;;;;;;;5.70;5.10;;;26.40;99.90;;;;;;5020001;28;20476;-78
2023/06/23 07:44:38;;;;;;;6.50;4.32;;;27.00;99.90;;;;;;5030105;28;20427;-76
2023/06/23 07:47:04;;;;;;;8.85;5.72;;;27.10;99.90;;;;;;4939241;28;21055;-77
2023/06/23 07:49:30;;;;;;;6.43;4.32;;;27.20;99.90;;;;;;4923872;29;20442;-76
2023/06/23 07:52:04;;;;;;;5.95;4.75;;;26.60;99.90;;;;;;4931610;28;20443;-79
2023/06/23 07:54:30;;;;;;;5.72;4.75;;;25.90;99.90;;;;;;4925433;29;20414;-79
2023/06/23 07:56:57;;;;;;;5.63;4.20;;;25.40;99.90;;;;;;4930006;28;20447;-77
2023/06/23 07:59:25;;;;;;;5.32;4.63;;;25.00;99.90;;;;;;4931142;29;20444;-80
2023/06/23 08:01:51;;;;;;;8.18;3.80;;;24.50;99.90;;;;;;4932097;29;20995;-79
2023/06/23 08:04:17;;;;;;;4.55;4.05;;;24.20;99.90;;;;;;4933051;29;20466;-80
2023/06/23 08:06:43;;;;;;;5.65;4.25;;;24.10;99.90;;;;;;4977824;28;20427;-84
2023/06/23 08:09:09;;;;;;;4.55;3.80;;;24.10;99.90;;;;;;5031878;28;20427;-80
2023/06/23 08:11:35;;;;;;;5.90;4.85;;;23.90;99.90;;;;;;4928031;28;20439;-79
2023/06/23 08:14:00;;;;;;;7.70;5.07;;;23.80;99.90;;;;;;4932754;29;20412;-80
2023/06/23 08:16:27;;;;;;;7.25;5.90;;;23.70;99.90;;;;;;5002397;28;20519;-80
2023/06/23 08:18:53;;;;;;;7.80;6.25;;;24.00;99.90;;;;;;5007784;28;20435;-78
2023/06/23 08:21:19;;;;;;;7.03;5.10;;;24.10;99.90;;;;;;4932360;28;20486;-80
2023/06/23 08:23:48;;;;;;;9.95;6.05;;;24.10;99.90;;;;;;4931588;28;20459;-79
2023/06/23 08:26:15;;;;;;;6.13;5.53;;;23.90;99.90;;;;;;4913874;28;20427;-80
2023/06/23 08:28:41;;;;;;;6.97;6.07;;;23.90;99.90;;;;;;4932337;29;20510;-79
2023/06/23 08:31:07;;;;;;;7.63;6.22;;;23.80;99.90;;;;;;4951838;28;20463;-79
2023/06/23 08:33:33;;;;;;;7.07;6.32;;;24.00;99.90;;;;;;4934070;28;21176;-80
2023/06/23 08:35:59;;;;;;;6.63;5.93;;;23.50;99.90;;;;;;4952955;28;20840;-79
2023/06/23 08:38:25;;;;;;;8.75;6.68;;;23.70;99.90;;;;;;4915405;28;20444;-81
2023/06/23 08:40:53;;;;;;;7.07;5.93;;;23.60;99.90;;;;;;4926143;28;20895;-81
2023/06/23 08:43:28;;;;;;;7.35;5.05;;;23.60;99.90;;;;;;4952451;28;20434;-81
2023/06/23 08:45:56;;;;;;;7.53;5.27;;;23.90;99.90;;;;;;4917272;28;20466;-80
2023/06/23 08:48:26;;;;;;;6.60;5.45;;;24.10;99.90;;;;;;4919051;29;20416;-82
2023/06/23 08:50:57;;;;;;;6.88;5.47;;;24.10;99.90;;;;;;4930900;29;20458;-79
2023/06/23 08:53:23;;;;;;;5.55;4.30;;;24.00;99.90;;;;;;4931896;28;20442;-79
2023/06/23 08:55:53;;;;;;;5.53;4.60;;;24.00;99.90;;;;;;4926772;28;20506;-79
2023/06/23 08:58:24;;;;;;;9.30;5.17;;;24.10;99.90;;;;;;5007591;28;20582;-79
2023/06/23 09:00:51;;;;;;;5.50;4.68;;;24.20;99.90;;;;;;4930650;29;20945;-77
2023/06/23 09:03:18;;;;;;;5.35;4.45;;;24.10;99.90;;;;;;5013681;28;20497;-76
2023/06/23 09:05:45;;;;;;;6.38;4.45;;;24.00;99.90;;;;;;4933364;28;20510;-76
2023/06/23 09:08:11;;;;;;;5.45;4.13;;;24.20;99.90;;;;;;4930853;29;20431;-79
2023/06/23 09:10:37;;;;;;;5.82;4.00;;;24.20;99.90;;;;;;4931496;29;20431;-80
2023/06/23 09:13:17;;;;;;;8.82;4.50;;;24.40;99.90;;;;;;4931703;29;20426;-79
2023/06/23 09:15:47;;;;;;;5.90;3.05;;;24.50;99.90;;;;;;4930175;28;20440;-78
2023/06/23 09:18:15;;;;;;;4.55;3.60;;;24.60;99.90;;;;;;4929953;29;20415;-78
2023/06/23 09:20:44;;;;;;;4.10;3.70;;;24.70;99.90;;;;;;4929474;29;20416;-78
2023/06/23 09:23:15;;;;;;;4.15;3.72;;;24.70;99.90;;;;;;4928550;29;20443;-77
2023/06/23 09:25:49;;;;;;;6.73;3.50;;;24.40;99.90;;;;;;4931068;29;20828;-81
2023/06/23 09:28:35;;;;;;;6.30;4.60;;;24.60;99.90;;;;;;4933104;29;20416;-78
2023/06/23 09:31:12;;;;;;;5.40;3.78;;;24.60;99.90;;;;;;4917002;28;20497;-81
2023/06/23 09:33:52;;;;;;;5.60;3.37;;;24.60;99.90;;;;;;4931885;28;20917;-81
2023/06/23 09:36:19;;;;;;;6.47;3.67;;;24.70;99.90;;;;;;4932725;29;20988;-79
2023/06/23 09:38:48;;;;;;;5.17;3.73;;;24.20;99.90;;;;;;4933118;29;20420;-81
2023/06/23 09:41:16;;;;;;;6.05;3.58;;;24.40;99.90;;;;;;4931659;29;20778;-81
2023/06/23 09:43:47;;;;;;;5.75;4.18;;;24.70;99.90;;;;;;4915002;28;20451;-81
2023/06/23 09:46:17;;;;;;;5.78;4.15;;;24.70;99.90;;;;;;4931959;29;20428;-79
2023/06/23 09:48:45;;;;;;;8.43;3.47;;;24.50;99.90;;;;;;4931459;28;20416;-79
2023/06/23 09:51:11;;;;;;;6.50;3.85;;;24.70;99.90;;;;;;4932358;29;20835;-80
2023/06/23 09:53:39;;;;;;;4.85;4.18;;;24.70;99.90;;;;;;4930284;29;20478;-81
2023/06/23 09:56:07;;;;;;;5.07;4.20;;;24.70;99.90;;;;;;5005715;28;20446;-79
2023/06/23 09:58:41;;;;;;;6.05;3.80;;;24.80;99.90;;;;;;4925779;29;20431;-80
2023/06/23 10:01:10;;;;;;;5.77;4.40;;;24.80;99.90;;;;;;4984478;28;20431;-80
2023/06/23 10:03:43;;;;;;;5.35;4.13;;;24.80;99.90;;;;;;5041404;28;20430;-81
2023/06/23 10:06:20;;;;;;;4.05;3.50;;;24.80;99.90;;;;;;4999418;28;20774;-81
2023/06/23 10:08:46;;;;;;;3.95;3.55;;;25.00;99.90;;;;;;4992896;28;20461;-80
2023/06/23 10:11:12;;;;;;;6.37;3.17;;;24.70;99.90;;;;;;4992606;28;20532;-79
2023/06/23 10:13:38;;;;;;;7.18;3.90;;;24.90;99.90;;;;;;4991910;28;20781;-80
2023/06/23 10:16:04;;;;;;;4.30;3.47;;;25.10;99.90;;;;;;4986467;28;20422;-80
2023/06/23 10:18:31;;;;;;;5.13;3.30;;;24.90;99.90;;;;;;4991571;28;20414;-81
2023/06/23 10:20:57;;;;;;;3.65;3.22;;;24.70;99.90;;;;;;4990945;28;20935;-79
2023/06/23 10:23:25;;;;;;;5.38;3.40;;;24.90;99.90;;;;;;4990350;28;20430;-79
2023/06/23 10:25:54;;;;;;;4.13;3.50;;;25.00;99.90;;;;;;4991783;28;20421;-78
2023/06/23 10:28:22;;;;;;;4.03;3.50;;;25.20;99.90;;;;;;4991916;28;20410;-79
2023/06/23 10:30:49;;;;;;;5.53;4.23;;;25.20;99.90;;;;;;4979176;28;20481;-77
2023/06/23 10:33:20;;;;;;;4.80;3.67;;;24.80;99.90;;;;;;4987782;28;20513;-78
2023/06/23 10:35:52;;;;;;;5.10;3.20;;;24.70;99.90;;;;;;4994932;28;20488;-81
2023/06/23 10:38:22;;;;;;;4.43;3.58;;;25.00;99.90;;;;;;4992868;28;20486;-79
2023/06/23 10:40:50;;;;;;;5.17;4.63;;;25.00;99.90;;;;;;4988066;28;20422;-79
2023/06/23 10:43:18;;;;;;;4.90;4.40;;;24.70;99.90;;;;;;4994897;28;20434;-78
2023/06/23 10:45:45;;;;;;;5.53;5.03;;;24.90;99.90;;;;;;4991963;28;20414;-78
2023/06/23 10:48:11;;;;;;;7.97;4.68;;;25.20;99.90;;;;;;4992173;28;20430;-79
2023/06/23 10:50:39;;;;;;;7.35;4.90;;;25.00;99.90;;;;;;4992690;28;20470;-80
2023/06/23 10:53:10;;;;;;;6.05;4.70;;;25.00;99.90;;;;;;4991574;28;20460;-79
2023/06/23 10:55:38;;;;;;;5.82;5.10;;;24.80;99.90;;;;;;4992556;28;20442;-82
2023/06/23 10:58:23;;;;;;;4.90;4.43;;;24.70;99.90;;;;;;5007164;28;20841;-76
2023/06/23 11:00:55;;;;;;;6.15;4.15;;;24.50;99.90;;;;;;4971679;28;20471;-82
2023/06/23 11:03:34;;;;;;;6.55;4.63;;;24.70;99.90;;;;;;4979011;28;20469;-78
2023/06/23 11:06:04;;;;;;;4.65;4.20;;;24.70;99.90;;;;;;4957947;28;20420;-81
2023/06/23 11:08:38;;;;;;;7.03;4.78;;;24.60;99.90;;;;;;4930877;29;20436;-80
2023/06/23 11:11:05;;;;;;;8.27;4.88;;;24.80;99.90;;;;;;4914376;28;20423;-80
2023/06/23 11:13:44;;;;;;;7.30;4.03;;;24.80;99.90;;;;;;4931649;29;20518;-80
2023/06/23 11:16:17;;;;;;;7.30;4.18;;;24.60;99.90;;;;;;4930190;29;20416;-80
2023/06/23 11:18:51;;;;;;;5.77;3.57;;;24.80;99.90;;;;;;4930923;29;20423;-78
2023/06/23 11:21:31;;;;;;;5.25;3.10;;;24.70;99.90;;;;;;4931526;29;20443;-77
2023/06/23 11:24:11;;;;;;;7.30;3.78;;;24.80;99.90;;;;;;4936065;28;20462;-79
2023/06/23 11:26:44;;;;;;;7.22;3.60;;;24.70;99.90;;;;;;4914243;28;20426;-80
2023/06/23 11:29:13;;;;;;;3.70;2.97;;;24.80;99.90;;;;;;4904497;29;20423;-80
2023/06/23 11:32:10;;;;;;;4.22;3.38;;;24.80;99.90;;;;;;4933634;28;20948;-78
2023/06/23 11:34:52;;;;;;;6.20;4.00;;;25.00;99.90;;;;;;4923715;28;20968;-77
2023/06/23 11:37:18;;;;;;;4.13;3.10;;;25.00;99.90;;;;;;4927924;29;20771;-80
2023/06/23 11:39:44;;;;;;;4.30;2.80;;;24.80;99.90;;;;;;4941908;28;20470;-80
2023/06/23 11:42:10;;;;;;;3.30;3.00;;;24.90;99.90;;;;;;4938996;28;20485;-79
2023/06/23 11:44:36;;;;;;;4.13;3.17;;;25.00;99.90;;;;;;5017155;28;20557;-79
2023/06/23 11:47:02;;;;;;;7.78;3.47;;;25.00;99.90;;;;;;4993539;28;20423;-80
2023/06/23 11:49:28;;;;;;;3.85;3.13;;;25.00;99.90;;;;;;4925742;28;20432;-75
2023/06/23 11:52:02;;;;;;;5.10;3.20;;;24.90;99.90;;;;;;4938338;29;20447;-80
2023/06/23 11:54:34;;;;;;;2.97;2.67;;;25.30;99.90;;;;;;4938340;29;20424;-78
2023/06/23 11:57:03;;;;;;;4.47;2.63;;;25.20;99.90;;;;;;4938703;28;20420;-77
2023/06/23 11:59:36;;;;;;;4.38;2.60;;;25.20;99.90;;;;;;4937151;28;20934;-77
2023/06/23 12:02:03;;;;;;;3.42;2.65;;;25.10;99.90;;;;;;4936468;29;20471;-78
2023/06/23 12:04:29;;;;;;;5.20;3.20;;;25.30;99.90;;;;;;4940271;29;20416;-77
2023/06/23 12:06:57;;;;;;;6.30;3.22;;;25.30;99.90;;;;;;4942664;28;20459;-81
2023/06/23 12:09:23;;;;;;;6.15;3.10;;;25.40;99.90;;;;;;4942441;29;20408;-79
2023/06/23 12:11:51;;;;;;;6.68;3.60;;;25.20;99.90;;;;;;4942799;28;20416;-78
2023/06/23 12:14:17;;;;;;;5.18;3.10;;;25.20;99.90;;;;;;4937114;29;20491;-79
2023/06/23 12:16:43;;;;;;;4.65;3.10;;;25.00;99.90;;;;;;4935873;29;20467;-81
2023/06/23 12:19:09;;;;;;;7.30;3.23;;;25.20;99.90;;;;;;4936572;29;20428;-78
2023/06/23 12:21:39;;;;;;;4.03;2.47;;;25.20;99.90;;;;;;4933929;29;20423;-79
2023/06/23 12:24:08;;;;;;;4.95;3.20;;;25.20;99.90;;;;;;4935187;28;20420;-76
2023/06/23 12:26:34;;;;;;;5.38;2.60;;;25.10;99.90;;;;;;4916617;29;20463;-80
2023/06/23 12:29:11;;;;;;;6.03;3.10;;;25.10;99.90;;;;;;4935767;29;20435;-76
2023/06/23 12:31:39;;;;;;;3.10;2.30;;;25.10;99.90;;;;;;4934466;29;20412;-77
2023/06/23 12:34:05;;;;;;;4.25;2.80;;;24.70;99.90;;;;;;4934812;29;20435;-80
2023/06/23 12:36:31;;;;;;;4.67;2.50;;;24.80;99.90;;;;;;4902227;29;20429;-79
2023/06/23 12:38:58;;;;;;;5.03;2.60;;;25.10;99.90;;;;;;4899894;29;20787;-77
2023/06/23 12:41:27;;;;;;;3.42;2.80;;;25.20;99.90;;;;;;4915334;29;20417;-79
2023/06/23 12:43:59;;;;;;;3.60;2.70;;;25.20;99.90;;;;;;4915015;29;20441;-79
2023/06/23 12:46:26;;;;;;;4.45;2.50;;;24.90;99.90;;;;;;4925114;29;20470;-79
2023/06/23 12:48:56;;;;;;;5.78;2.33;;;24.90;99.90;;;;;;4936172;28;20463;-79
2023/06/23 12:51:35;;;;;;;4.83;2.70;;;24.70;99.90;;;;;;4932481;28;20423;-77